Cosco Nagoya — 3ESJ8 — position and weather

sailwx.info

Track history (hours):
 
Tides and Currents Weather Stations Pressure Air Temp Water Temp Dewpoint Dewpoint Depression Visibility Wind Speed Wind Dir Waves Ship Positions

Cosco Nagoya

Last reported at 2014-Sep-17 10:31 UTC. Time now 2014-Sep-17 13:32 UTC.
Position N 36°55' W 076°20'.

Length 260 m; draft 12.4 m.

Type: Cargo ship. MMSI: 370320000.

Date/timePositionNaut miles runAvg speedWind from/ knotsBaromVisibWave heightAir tempDewpointWater temp
2014-Sep-17 10:31N 36°55' W 076°20'0 0.0
2014-Sep-17 09:32N 36°55' W 076°20'3 2.6
2014-Sep-17 08:33N 36°57' W 076°20'1413.5
2014-Sep-17 07:30N 36°57' W 076°03'1010.0
2014-Sep-17 06:29N 36°53' W 075°52'9 9.2
2014-Sep-17 05:33N 36°49' W 075°42'21415.3
2014-Sep-16 15:33N 39°52' W 073°22'1514.9
2014-Sep-16 14:33N 40°06' W 073°27'1413.6
2014-Sep-16 13:33N 40°17' W 073°38'1413.7
2014-Sep-16 12:34N 40°27' W 073°50'1414.4
2014-Sep-16 11:33N 40°37' W 074°03'5 5.1
2014-Sep-16 10:33N 40°41' W 074°08'1 0.5
2014-Sep-16 09:31N 40°41' W 074°09'0 0.0
2014-Sep-16 08:31N 40°41' W 074°09'0 0.0
2014-Sep-16 07:28N 40°41' W 074°09'0 0.0
2014-Sep-16 06:31N 40°41' W 074°09'0 0.0
2014-Sep-16 05:31N 40°41' W 074°09'0 0.0
2014-Sep-16 04:28N 40°41' W 074°09'0 0.0
2014-Sep-16 03:19N 40°41' W 074°09'0 0.0
2014-Sep-16 02:31N 40°41' W 074°09'0 0.0
2014-Sep-16 01:31N 40°41' W 074°09'0 0.0
2014-Sep-16 00:31N 40°41' W 074°09'0 0.0
2014-Sep-15 23:31N 40°41' W 074°09'0 0.0
2014-Sep-15 22:25N 40°41' W 074°09'0 0.0
2014-Sep-15 21:28N 40°41' W 074°09'0 0.0
2014-Sep-15 20:16N 40°41' W 074°09'0 0.0
2014-Sep-15 19:25N 40°41' W 074°09'0 0.0
2014-Sep-15 18:25N 40°41' W 074°09'0 0.0
2014-Sep-15 17:25N 40°41' W 074°09'0 0.0
2014-Sep-15 16:31N 40°41' W 074°09'0 0.0
2014-Sep-15 15:31N 40°41' W 074°09'0 0.0
2014-Sep-15 14:31N 40°41' W 074°09'1 0.6
2014-Sep-15 13:33N 40°40' W 074°08'4 4.2
2014-Sep-15 12:33N 40°38' W 074°03'9 9.4
2014-Sep-15 11:33N 40°30' W 073°57'1111.0
2014-Sep-15 10:31N 40°27' W 073°43'1010.2
2014-Sep-15 09:31N 40°28' W 073°30'1414.8
2014-Sep-15 08:33N 40°29' W 073°11'1615.0
2014-Sep-15 07:31N 40°30' W 072°51'1515.3
2014-Sep-15 06:32N 40°31' W 072°31'1515.4
2014-Sep-15 05:33N 40°31' W 072°11'1515.4
2014-Sep-15 04:33N 40°32' W 071°51'1515.1
2014-Sep-15 03:33N 40°32' W 071°31'1515.2
2014-Sep-15 02:33N 40°33' W 071°11'1515.3
2014-Sep-15 01:33N 40°33' W 070°51'1615.7
2014-Sep-15 00:33N 40°33' W 070°30'1616.2
2014-Sep-14 23:33N 40°34' W 070°09'1616.2
2014-Sep-14 22:33N 40°35' W 069°48'1616.3
2014-Sep-14 21:33N 40°35' W 069°26'1615.8
2014-Sep-14 20:33N 40°35' W 069°05'1716.2
2014-Sep-14 19:32N 40°36' W 068°43'1716.0
2014-Sep-14 18:27N 40°38' W 068°21'1516.2
2014-Sep-14 17:31N 40°41' W 068°01'1816.1
2014-Sep-14 16:24N 40°44' W 067°38'1416.0
2014-Sep-14 15:33N 40°46' W 067°20'  
2014-Sep-08 13:18N 49°54' W 010°12'10417.8
2014-Sep-08 07:29N 49°47' W 007°32'1718.4
2014-Sep-08 06:33N 49°45' W 007°05'2017.8
2014-Sep-08 05:27N 49°43' W 006°35'14618.4
2014-Sep-07 21:32N 50°01' W 002°50'1818.6
2014-Sep-07 20:32N 50°04' W 002°22'1716.8
2014-Sep-07 19:31N 50°04' W 001°55'1414.1
2014-Sep-07 18:30N 49°59' W 001°35'1212.6
2014-Sep-07 17:33N 49°54' W 001°18'1414.0
2014-Sep-07 16:33N 49°47' W 000°59'1615.9
2014-Sep-07 15:33N 49°40' W 000°37'1716.8
2014-Sep-07 14:33N 49°33' W 000°13'1414.5
2014-Sep-07 13:33N 49°28' E 000°07'2 1.7
2014-Sep-07 12:33N 49°27' E 000°10'0 0.0
2014-Sep-07 11:33N 49°27' E 000°10'0 0.0
2014-Sep-07 10:33N 49°27' E 000°10'  
Track history (hours):
 
Tides and Currents Weather Stations Pressure Air Temp Water Temp Dewpoint Dewpoint Depression Visibility Wind Speed Wind Dir Waves Ship Positions

Cosco Nagoya

Last reported at 2014-Sep-17 10:31 UTC. Time now 2014-Sep-17 13:32 UTC.
Position N 36°55' W 076°20'.

Length 260 m; draft 12.4 m.

Type: Cargo ship. MMSI: 370320000.

Date/timePositionNaut miles runAvg speedWind from/ knotsBaromVisibWave heightAir tempDewpointWater temp
2014-Sep-17 10:31N 36°55' W 076°20'0 0.0
2014-Sep-17 09:32N 36°55' W 076°20'3 2.6
2014-Sep-17 08:33N 36°57' W 076°20'1413.5
2014-Sep-17 07:30N 36°57' W 076°03'1010.0
2014-Sep-17 06:29N 36°53' W 075°52'9 9.2
2014-Sep-17 05:33N 36°49' W 075°42'21415.3
2014-Sep-16 15:33N 39°52' W 073°22'1514.9
2014-Sep-16 14:33N 40°06' W 073°27'1413.6
2014-Sep-16 13:33N 40°17' W 073°38'1413.7
2014-Sep-16 12:34N 40°27' W 073°50'1414.4
2014-Sep-16 11:33N 40°37' W 074°03'5 5.1
2014-Sep-16 10:33N 40°41' W 074°08'1 0.5
2014-Sep-16 09:31N 40°41' W 074°09'0 0.0
2014-Sep-16 08:31N 40°41' W 074°09'0 0.0
2014-Sep-16 07:28N 40°41' W 074°09'0 0.0
2014-Sep-16 06:31N 40°41' W 074°09'0 0.0
2014-Sep-16 05:31N 40°41' W 074°09'0 0.0
2014-Sep-16 04:28N 40°41' W 074°09'0 0.0
2014-Sep-16 03:19N 40°41' W 074°09'0 0.0
2014-Sep-16 02:31N 40°41' W 074°09'0 0.0
2014-Sep-16 01:31N 40°41' W 074°09'0 0.0
2014-Sep-16 00:31N 40°41' W 074°09'0 0.0
2014-Sep-15 23:31N 40°41' W 074°09'0 0.0
2014-Sep-15 22:25N 40°41' W 074°09'0 0.0
2014-Sep-15 21:28N 40°41' W 074°09'0 0.0
2014-Sep-15 20:16N 40°41' W 074°09'0 0.0
2014-Sep-15 19:25N 40°41' W 074°09'0 0.0
2014-Sep-15 18:25N 40°41' W 074°09'0 0.0
2014-Sep-15 17:25N 40°41' W 074°09'0 0.0
2014-Sep-15 16:31N 40°41' W 074°09'0 0.0
2014-Sep-15 15:31N 40°41' W 074°09'0 0.0
2014-Sep-15 14:31N 40°41' W 074°09'1 0.6
2014-Sep-15 13:33N 40°40' W 074°08'4 4.2
2014-Sep-15 12:33N 40°38' W 074°03'9 9.4
2014-Sep-15 11:33N 40°30' W 073°57'1111.0
2014-Sep-15 10:31N 40°27' W 073°43'1010.2
2014-Sep-15 09:31N 40°28' W 073°30'1414.8
2014-Sep-15 08:33N 40°29' W 073°11'1615.0
2014-Sep-15 07:31N 40°30' W 072°51'1515.3
2014-Sep-15 06:32N 40°31' W 072°31'1515.4
2014-Sep-15 05:33N 40°31' W 072°11'1515.4
2014-Sep-15 04:33N 40°32' W 071°51'1515.1
2014-Sep-15 03:33N 40°32' W 071°31'1515.2
2014-Sep-15 02:33N 40°33' W 071°11'1515.3
2014-Sep-15 01:33N 40°33' W 070°51'1615.7
2014-Sep-15 00:33N 40°33' W 070°30'1616.2
2014-Sep-14 23:33N 40°34' W 070°09'1616.2
2014-Sep-14 22:33N 40°35' W 069°48'1616.3
2014-Sep-14 21:33N 40°35' W 069°26'1615.8
2014-Sep-14 20:33N 40°35' W 069°05'1716.2
2014-Sep-14 19:32N 40°36' W 068°43'1716.0
2014-Sep-14 18:27N 40°38' W 068°21'1516.2
2014-Sep-14 17:31N 40°41' W 068°01'1816.1
2014-Sep-14 16:24N 40°44' W 067°38'1416.0
2014-Sep-14 15:33N 40°46' W 067°20'  
2014-Sep-08 13:18N 49°54' W 010°12'10417.8
2014-Sep-08 07:29N 49°47' W 007°32'1718.4
2014-Sep-08 06:33N 49°45' W 007°05'2017.8
2014-Sep-08 05:27N 49°43' W 006°35'14618.4
2014-Sep-07 21:32N 50°01' W 002°50'1818.6
2014-Sep-07 20:32N 50°04' W 002°22'1716.8
2014-Sep-07 19:31N 50°04' W 001°55'1414.1
2014-Sep-07 18:30N 49°59' W 001°35'1212.6
2014-Sep-07 17:33N 49°54' W 001°18'1414.0
2014-Sep-07 16:33N 49°47' W 000°59'1615.9
2014-Sep-07 15:33N 49°40' W 000°37'1716.8
2014-Sep-07 14:33N 49°33' W 000°13'1414.5
2014-Sep-07 13:33N 49°28' E 000°07'2 1.7
2014-Sep-07 12:33N 49°27' E 000°10'0 0.0
2014-Sep-07 11:33N 49°27' E 000°10'0 0.0
2014-Sep-07 10:33N 49°27' E 000°10'  

Dump ship's entire track history